Crozet, Virginia
Current Conditions -  °F | °C
As of 3:35 AM on Saturday 29 Nov 2014 (Local Time) from KW13 Reporting Station
Overcast Overcast  
Wind Chill: 25°   Ceiling: 12000
Heat Index: 25°   Visibility: 10mi
Dew Point: 19°   Wind: 0mph
Humidity: 78%   Direction: NA
Pressure: 30.22"   Gusts: NA
Location:  38.07°N, 78.7°W
Report Text: KW13 290835Z AUTO 00000KT 10SM OVC120 M04/M07 A3022 RMK AO1 T10391073
Loading
Personal Weather Stations






























Interactive Weather Map New forecast layout! Learn more

10-Day Weather Forecast

Advertisements
Track Severe Weather on mobile